createdAt,value
2017-12-25T00:00:22.530Z,2.27
2017-12-25T00:02:51.608Z,2.30
2017-12-25T00:05:19.930Z,3.30
2017-12-25T00:07:48.230Z,3.50
2017-12-25T00:10:16.536Z,3.60
2017-12-25T00:12:45.650Z,3.57
2017-12-25T00:15:13.979Z,3.30
2017-12-25T00:17:42.295Z,4.03
2017-12-25T00:20:10.582Z,4.50
2017-12-25T00:22:38.884Z,4.33
2017-12-25T00:25:07.213Z,4.20
2017-12-25T00:27:35.526Z,3.53
2017-12-25T00:30:03.850Z,3.50
2017-12-25T00:32:32.917Z,3.63
2017-12-25T00:35:01.234Z,3.30
2017-12-25T00:37:30.320Z,3.50
2017-12-25T00:39:58.624Z,3.07
2017-12-25T00:42:27.579Z,3.20
2017-12-25T00:44:56.801Z,2.97
2017-12-25T00:47:25.896Z,2.60
2017-12-25T00:49:54.216Z,2.77
2017-12-25T00:52:22.531Z,2.60
2017-12-25T00:54:50.846Z,2.70
2017-12-25T00:57:19.145Z,3.27
2017-12-25T00:59:48.234Z,2.80
2017-12-25T01:02:17.318Z,2.60
2017-12-25T01:04:45.628Z,2.60
2017-12-25T01:07:13.922Z,3.30
2017-12-25T01:09:42.234Z,3.10
2017-12-25T01:12:10.563Z,2.97
2017-12-25T01:14:39.628Z,3.37
2017-12-25T01:17:07.936Z,3.00
2017-12-25T01:19:36.996Z,2.77
2017-12-25T01:22:05.303Z,3.07
2017-12-25T01:24:33.612Z,3.20
2017-12-25T01:27:02.727Z,3.37
2017-12-25T01:29:31.039Z,3.23
2017-12-25T01:31:59.370Z,4.20
2017-12-25T01:34:28.452Z,3.50
2017-12-25T01:36:56.743Z,2.57
2017-12-25T01:39:25.067Z,3.10
2017-12-25T01:41:53.373Z,3.13
2017-12-25T01:44:22.535Z,2.47
2017-12-25T01:47:06.753Z,3.27
2017-12-25T01:49:35.840Z,2.60
2017-12-25T01:52:04.933Z,2.50
2017-12-25T01:54:36.211Z,2.60
2017-12-25T01:57:17.859Z,3.43
2017-12-25T01:59:52.744Z,2.47
2017-12-25T02:02:21.101Z,2.07
2017-12-25T02:08:07.041Z,3.27
2017-12-25T02:10:35.339Z,2.80
2017-12-25T02:13:03.639Z,2.40
2017-12-25T02:15:32.695Z,2.30
2017-12-25T02:18:01.021Z,2.50
2017-12-25T02:20:29.381Z,2.00
2017-12-25T02:22:57.703Z,2.13
2017-12-25T02:25:26.782Z,2.73
2017-12-25T02:27:55.189Z,2.10
2017-12-25T02:30:23.517Z,2.40
2017-12-25T02:32:51.834Z,2.67
2017-12-25T02:35:20.948Z,1.77
2017-12-25T02:37:50.032Z,2.80
2017-12-25T02:40:19.093Z,2.40
2017-12-25T02:42:47.392Z,2.17
2017-12-25T02:45:15.687Z,1.80
2017-12-25T02:47:44.016Z,2.57
2017-12-25T02:50:12.345Z,2.93
2017-12-25T02:52:41.437Z,3.00
2017-12-25T02:55:09.830Z,2.80
2017-12-25T02:57:38.906Z,3.00
2017-12-25T03:00:07.341Z,2.80
2017-12-25T03:02:36.423Z,2.70
2017-12-25T03:05:05.499Z,3.37
2017-12-25T03:07:33.885Z,3.00
2017-12-25T03:10:02.187Z,3.57
2017-12-25T03:12:31.270Z,3.23
2017-12-25T03:14:59.631Z,2.73
2017-12-25T03:17:27.962Z,3.20
2017-12-25T03:19:57.048Z,3.27
2017-12-25T03:22:26.113Z,3.67
2017-12-25T03:24:54.437Z,4.40
2017-12-25T03:27:23.515Z,5.20
2017-12-25T03:29:51.821Z,5.10
2017-12-25T03:32:20.899Z,5.60
2017-12-25T03:34:49.977Z,6.10
2017-12-25T03:37:18.283Z,6.30
2017-12-25T03:39:46.610Z,6.87
2017-12-25T03:42:14.917Z,7.30
2017-12-25T03:44:43.219Z,9.20
2017-12-25T03:47:12.315Z,9.00
2017-12-25T03:49:40.617Z,8.93
2017-12-25T03:52:09.696Z,9.03
2017-12-25T03:54:38.780Z,9.40
2017-12-25T03:57:07.096Z,10.00
2017-12-25T03:59:36.161Z,8.80
2017-12-25T04:02:04.450Z,8.73
2017-12-25T04:04:33.503Z,8.93
2017-12-25T04:07:01.815Z,9.37
2017-12-25T04:09:30.123Z,8.40
2017-12-25T04:11:58.440Z,9.10
2017-12-25T04:14:26.747Z,9.37
2017-12-25T04:16:55.052Z,9.40
2017-12-25T04:19:23.354Z,9.30
2017-12-25T04:21:51.668Z,9.40
2017-12-25T04:24:19.969Z,9.43
2017-12-25T04:26:48.267Z,10.37
2017-12-25T04:29:16.590Z,11.40
2017-12-25T04:31:45.657Z,11.00
2017-12-25T04:34:13.969Z,11.73
2017-12-25T04:36:43.041Z,12.37
2017-12-25T04:39:11.427Z,12.47
2017-12-25T04:41:40.494Z,12.73
2017-12-25T04:44:08.785Z,12.20
2017-12-25T04:46:37.089Z,13.27
2017-12-25T04:49:05.395Z,12.47
2017-12-25T04:51:34.449Z,13.03
2017-12-25T04:54:02.775Z,13.83
2017-12-25T04:56:31.855Z,12.13
2017-12-25T04:59:00.189Z,13.90
2017-12-25T05:01:28.497Z,14.10
2017-12-25T05:03:57.567Z,13.67
2017-12-25T05:06:25.885Z,13.73
2017-12-25T05:08:54.211Z,14.80
2017-12-25T05:11:23.293Z,15.60
2017-12-25T05:13:52.358Z,14.50
2017-12-25T05:16:20.667Z,14.87
2017-12-25T05:18:49.745Z,15.13
2017-12-25T05:21:18.085Z,14.70
2017-12-25T05:23:46.400Z,12.77
2017-12-25T05:26:14.732Z,13.13
2017-12-25T05:28:43.807Z,12.10
2017-12-25T05:31:12.107Z,13.53
2017-12-25T05:33:40.421Z,12.10
2017-12-25T05:36:08.735Z,13.37
2017-12-25T05:38:37.041Z,12.63
2017-12-25T05:41:05.357Z,13.70
2017-12-25T05:43:33.653Z,11.73
2017-12-25T05:46:01.963Z,14.70
2017-12-25T05:48:30.285Z,13.90
2017-12-25T05:51:00.034Z,14.17
2017-12-25T05:53:29.107Z,14.13
2017-12-25T05:55:57.431Z,15.20
2017-12-25T05:58:25.736Z,14.00
2017-12-25T06:00:54.829Z,16.57
2017-12-25T06:03:23.137Z,16.33
2017-12-25T06:05:52.223Z,16.60
2017-12-25T06:08:20.902Z,15.77
2017-12-25T06:10:49.228Z,16.03
2017-12-25T06:13:17.598Z,17.53
2017-12-25T06:15:46.701Z,16.00
2017-12-25T06:18:15.018Z,14.57
2017-12-25T06:20:43.347Z,13.57
2017-12-25T06:23:12.403Z,11.03
2017-12-25T06:25:40.713Z,12.90
2017-12-25T06:28:09.053Z,12.37
2017-12-25T06:30:37.405Z,11.27
2017-12-25T06:33:06.479Z,10.87
2017-12-25T06:35:34.797Z,10.60
2017-12-25T06:38:03.119Z,11.40
2017-12-25T06:40:31.422Z,11.70
2017-12-25T06:42:59.735Z,10.70
2017-12-25T06:45:28.051Z,10.90
2017-12-25T06:47:56.365Z,9.43
2017-12-25T06:50:24.675Z,9.60
2017-12-25T06:52:53.041Z,9.50
2017-12-25T06:55:22.111Z,10.60
2017-12-25T06:57:50.406Z,8.80
2017-12-25T07:00:18.712Z,8.27
2017-12-25T07:02:47.788Z,8.77
2017-12-25T07:05:16.111Z,7.40
2017-12-25T07:07:44.405Z,6.83
2017-12-25T07:10:12.709Z,6.70
2017-12-25T07:12:41.811Z,5.80
2017-12-25T07:15:10.103Z,6.73
2017-12-25T07:17:38.408Z,5.67
2017-12-25T07:20:07.470Z,5.77
2017-12-25T07:22:35.793Z,5.20
2017-12-25T07:25:04.868Z,5.57
2017-12-25T07:27:34.079Z,5.97
2017-12-25T07:30:03.161Z,5.57
2017-12-25T07:32:31.460Z,5.47
2017-12-25T07:34:59.764Z,5.90
2017-12-25T07:37:28.161Z,5.80
2017-12-25T07:39:57.223Z,5.50
2017-12-25T07:42:25.564Z,5.00
2017-12-25T07:44:53.879Z,5.03
2017-12-25T07:47:22.192Z,5.20
2017-12-25T07:49:51.266Z,5.17
2017-12-25T07:52:20.352Z,5.33
2017-12-25T07:54:48.678Z,4.70
2017-12-25T07:57:16.989Z,4.50
2017-12-25T07:59:45.298Z,4.73
2017-12-25T08:02:13.616Z,4.90
2017-12-25T08:04:42.680Z,5.83
2017-12-25T08:07:11.206Z,5.50
2017-12-25T08:09:39.523Z,5.07
2017-12-25T08:12:07.842Z,4.43
2017-12-25T08:14:36.328Z,4.80
2017-12-25T08:17:05.329Z,5.33
2017-12-25T08:19:34.546Z,4.37
2017-12-25T08:22:03.015Z,4.40
2017-12-25T08:24:31.316Z,4.53
2017-12-25T08:26:59.620Z,5.03
2017-12-25T08:29:27.922Z,4.07
2017-12-25T08:31:56.230Z,4.83
2017-12-25T08:34:24.526Z,4.50
2017-12-25T08:36:53.600Z,4.20
2017-12-25T08:39:21.910Z,4.43
2017-12-25T08:41:50.987Z,5.60
2017-12-25T08:44:19.295Z,5.27
2017-12-25T08:46:48.365Z,5.13
2017-12-25T08:49:16.661Z,5.13
2017-12-25T08:51:45.862Z,6.10
2017-12-25T08:54:14.222Z,5.20
2017-12-25T08:56:42.684Z,5.20
2017-12-25T08:59:10.979Z,6.20
2017-12-25T09:01:39.265Z,5.70
2017-12-25T09:04:07.571Z,5.47
2017-12-25T09:06:35.882Z,5.70
2017-12-25T09:09:04.188Z,5.50
2017-12-25T09:11:32.481Z,5.70
2017-12-25T09:14:00.774Z,5.83
2017-12-25T09:16:29.062Z,6.47
2017-12-25T09:18:57.384Z,6.93
2017-12-25T09:21:25.670Z,6.20
2017-12-25T09:23:54.018Z,5.60
2017-12-25T09:26:22.349Z,6.00
2017-12-25T09:28:50.712Z,6.20
2017-12-25T09:31:19.034Z,5.27
2017-12-25T09:33:47.342Z,4.47
2017-12-25T09:36:15.638Z,5.10
2017-12-25T09:38:44.725Z,4.47
2017-12-25T09:41:13.057Z,4.10
2017-12-25T09:43:41.824Z,3.47
2017-12-25T09:46:10.886Z,3.90
2017-12-25T09:48:39.194Z,3.03
2017-12-25T09:51:08.286Z,2.40
2017-12-25T09:53:36.606Z,3.00
2017-12-25T09:56:04.904Z,2.60
2017-12-25T09:58:33.208Z,2.37
2017-12-25T10:01:01.515Z,2.50
2017-12-25T10:03:30.581Z,2.87
2017-12-25T10:05:58.904Z,3.23
2017-12-25T10:08:27.949Z,3.10
2017-12-25T10:10:56.285Z,3.50
2017-12-25T10:13:25.352Z,3.10
2017-12-25T10:15:54.490Z,2.77
2017-12-25T10:18:23.552Z,2.37
2017-12-25T10:20:51.865Z,2.63
2017-12-25T10:23:21.062Z,1.90
2017-12-25T10:25:50.125Z,2.40
2017-12-25T10:28:18.428Z,1.70
2017-12-25T10:30:46.735Z,1.70
2017-12-25T10:33:15.055Z,1.70
2017-12-25T10:35:43.348Z,1.80
2017-12-25T10:38:11.661Z,1.73
2017-12-25T10:40:40.747Z,2.00
2017-12-25T10:43:09.274Z,1.80
2017-12-25T10:45:37.586Z,2.10
2017-12-25T10:48:05.898Z,2.07
2017-12-25T10:50:34.218Z,1.97
2017-12-25T10:53:02.509Z,2.20
2017-12-25T10:55:30.840Z,2.70
2017-12-25T10:57:59.154Z,2.80
2017-12-25T11:00:32.965Z,2.57
2017-12-25T11:03:01.942Z,2.87
2017-12-25T11:05:31.002Z,2.63
2017-12-25T11:07:59.314Z,3.30
2017-12-25T11:10:27.634Z,3.77
2017-12-25T11:12:55.931Z,3.03
2017-12-25T11:15:24.257Z,2.97
2017-12-25T11:17:52.586Z,3.00
2017-12-25T11:20:21.680Z,2.87
2017-12-25T11:22:49.982Z,2.57
2017-12-25T11:25:18.282Z,2.90
2017-12-25T11:27:46.590Z,2.60
2017-12-25T11:30:15.690Z,2.20
2017-12-25T11:32:44.806Z,3.07
2017-12-25T11:35:13.134Z,3.50
2017-12-25T11:37:41.472Z,4.17
2017-12-25T11:40:09.804Z,3.70
2017-12-25T11:42:38.111Z,4.40
2017-12-25T11:45:07.190Z,4.77
2017-12-25T11:47:35.510Z,4.60
2017-12-25T11:50:04.607Z,5.33
2017-12-25T11:52:33.717Z,6.03
2017-12-25T11:55:02.953Z,7.30
2017-12-25T11:57:31.504Z,9.40
2017-12-25T12:00:02.102Z,8.83
2017-12-25T12:02:30.658Z,9.47
2017-12-25T12:04:59.013Z,11.03
2017-12-25T12:07:27.401Z,12.03
2017-12-25T12:09:55.742Z,11.00
2017-12-25T12:12:24.827Z,9.00
2017-12-25T12:14:53.133Z,7.20
2017-12-25T12:17:22.209Z,6.60
2017-12-25T12:19:50.515Z,5.70
2017-12-25T12:22:18.827Z,4.70
2017-12-25T12:24:47.149Z,4.33
2017-12-25T12:29:49.939Z,3.87
2017-12-25T12:32:18.326Z,3.73
2017-12-25T12:34:46.647Z,5.03
2017-12-25T12:37:14.948Z,5.43
2017-12-25T12:39:44.031Z,3.80
2017-12-25T12:42:13.119Z,5.53
2017-12-25T12:44:41.456Z,5.17
2017-12-25T12:47:09.859Z,4.90
2017-12-25T12:49:38.182Z,4.43
2017-12-25T12:52:07.249Z,4.90
2017-12-25T12:54:35.547Z,5.03
2017-12-25T12:57:03.870Z,4.60
2017-12-25T12:59:32.195Z,5.30
2017-12-25T13:02:00.488Z,3.90
2017-12-25T13:04:28.793Z,4.13
2017-12-25T13:06:57.883Z,3.83
2017-12-25T13:09:26.934Z,4.03
2017-12-25T13:11:55.232Z,3.60
2017-12-25T13:14:23.528Z,3.27
2017-12-25T13:16:52.676Z,3.87
2017-12-25T13:19:20.982Z,3.10
2017-12-25T13:21:49.285Z,2.90
2017-12-25T13:24:17.619Z,2.63
2017-12-25T13:26:46.713Z,2.57
2017-12-25T13:29:15.020Z,2.70
2017-12-25T13:31:43.329Z,2.90
2017-12-25T13:34:12.387Z,2.77
2017-12-25T13:36:40.699Z,2.50
2017-12-25T13:39:09.014Z,2.30
2017-12-25T13:41:38.158Z,2.80
2017-12-25T13:44:07.225Z,3.00
2017-12-25T13:46:36.313Z,2.60
2017-12-25T13:49:05.428Z,2.50
2017-12-25T13:51:33.822Z,2.70
2017-12-25T13:54:02.130Z,2.60
2017-12-25T13:56:30.449Z,2.70
2017-12-25T13:58:59.528Z,2.87
2017-12-25T14:01:27.837Z,3.07
2017-12-25T14:03:56.913Z,2.73
2017-12-25T14:06:25.221Z,2.97
2017-12-25T14:08:54.949Z,2.97
2017-12-25T14:11:23.240Z,3.33
2017-12-25T14:13:51.555Z,3.10
2017-12-25T14:16:19.864Z,3.43
2017-12-25T14:18:48.173Z,3.33
2017-12-25T14:21:17.109Z,3.40
2017-12-25T14:23:45.418Z,4.07
2017-12-25T14:26:14.492Z,4.33
2017-12-25T14:28:42.799Z,4.73
2017-12-25T14:31:11.092Z,5.37
2017-12-25T14:33:40.158Z,5.30
2017-12-25T14:36:08.451Z,5.47
2017-12-25T14:38:36.751Z,5.67
2017-12-25T14:41:05.049Z,5.13
2017-12-25T14:43:34.127Z,4.93
2017-12-25T14:46:02.432Z,5.77
2017-12-25T14:48:31.539Z,5.13
2017-12-25T14:50:59.841Z,4.93
2017-12-25T14:53:28.135Z,5.03
2017-12-25T14:55:56.431Z,5.03
2017-12-25T14:58:25.503Z,5.17
2017-12-25T15:00:53.795Z,4.87
2017-12-25T15:03:22.103Z,4.70
2017-12-25T15:05:50.401Z,4.30
2017-12-25T15:08:19.450Z,4.50
2017-12-25T15:10:47.747Z,4.27
2017-12-25T15:13:16.055Z,4.00
2017-12-25T15:15:45.200Z,4.10
2017-12-25T15:18:13.487Z,4.20
2017-12-25T15:20:41.788Z,4.80
2017-12-25T15:23:10.084Z,4.37
2017-12-25T15:25:38.414Z,4.03
2017-12-25T15:28:06.707Z,4.37
2017-12-25T15:30:35.028Z,3.63
2017-12-25T15:33:03.339Z,3.87
2017-12-25T15:35:32.403Z,3.13
2017-12-25T15:38:00.747Z,3.00
2017-12-25T15:40:29.049Z,2.80
2017-12-25T15:42:57.330Z,2.50
2017-12-25T15:45:25.639Z,2.70
2017-12-25T15:47:53.958Z,2.97
2017-12-25T15:50:22.375Z,3.00
2017-12-25T15:52:50.684Z,3.07
2017-12-25T15:55:18.984Z,2.97
2017-12-25T15:57:48.055Z,2.93
2017-12-25T16:00:16.363Z,3.30
2017-12-25T16:02:45.483Z,3.10
2017-12-25T16:05:13.783Z,3.30
2017-12-25T16:07:42.081Z,3.53
2017-12-25T16:10:10.383Z,2.93
2017-12-25T16:12:38.697Z,3.17
2017-12-25T16:15:07.756Z,3.30
2017-12-25T16:17:36.051Z,4.20
2017-12-25T16:20:04.361Z,3.60
2017-12-25T16:22:33.417Z,4.27
2017-12-25T16:25:01.721Z,4.40
2017-12-25T16:27:30.043Z,5.40
2017-12-25T16:29:58.330Z,4.80
2017-12-25T16:32:26.637Z,5.60
2017-12-25T16:34:54.959Z,5.27
2017-12-25T16:37:24.014Z,5.30
2017-12-25T16:39:52.317Z,6.57
2017-12-25T16:42:20.623Z,6.37
2017-12-25T16:44:48.957Z,6.00
2017-12-25T16:47:17.269Z,5.80
2017-12-25T16:49:45.579Z,6.50
2017-12-25T16:52:15.482Z,6.67
2017-12-25T16:54:44.544Z,6.23
2017-12-25T16:57:12.860Z,5.63
2017-12-25T16:59:41.160Z,5.53
2017-12-25T17:02:09.466Z,5.23
2017-12-25T17:04:38.469Z,5.47
2017-12-25T17:07:06.764Z,5.17
2017-12-25T17:09:35.081Z,5.40
2017-12-25T17:12:04.148Z,6.33
2017-12-25T17:14:32.468Z,5.93
2017-12-25T17:17:02.347Z,6.10
2017-12-25T17:19:30.671Z,6.33
2017-12-25T17:21:59.740Z,6.43
2017-12-25T17:24:28.033Z,5.97
2017-12-25T17:26:56.337Z,6.53
2017-12-25T17:29:25.424Z,5.50
2017-12-25T17:31:54.506Z,5.90
2017-12-25T17:34:22.816Z,5.73
2017-12-25T17:36:51.872Z,6.50
2017-12-25T17:39:20.188Z,6.33
2017-12-25T17:41:49.264Z,6.30
2017-12-25T17:44:17.563Z,7.50
2017-12-25T17:46:46.625Z,7.13
2017-12-25T17:49:14.931Z,7.20
2017-12-25T17:51:43.230Z,7.13
2017-12-25T17:54:11.544Z,7.67
2017-12-25T17:56:39.838Z,7.80
2017-12-25T17:59:08.152Z,7.60
2017-12-25T18:01:36.442Z,8.20
2017-12-25T18:04:04.762Z,8.77
2017-12-25T18:06:33.056Z,8.67
2017-12-25T18:09:01.378Z,9.27
2017-12-25T18:11:30.476Z,9.50
2017-12-25T18:13:58.783Z,9.47
2017-12-25T18:16:27.878Z,9.23
2017-12-25T18:18:56.962Z,9.10
2017-12-25T18:21:25.272Z,9.40
2017-12-25T18:23:54.333Z,9.20
2017-12-25T18:26:22.665Z,10.07
2017-12-25T18:28:50.976Z,10.07
2017-12-25T18:31:19.277Z,10.53
2017-12-25T18:33:47.587Z,9.70
2017-12-25T18:36:16.660Z,10.00
2017-12-25T18:38:44.974Z,10.93
2017-12-25T18:41:14.058Z,10.90
2017-12-25T18:43:43.132Z,9.60
2017-12-25T18:46:11.434Z,9.67
2017-12-25T18:48:39.752Z,9.00
2017-12-25T18:51:08.824Z,9.67
2017-12-25T18:53:37.950Z,10.10
2017-12-25T18:56:06.253Z,9.57
2017-12-25T18:58:34.559Z,10.53
2017-12-25T19:01:02.870Z,10.10
2017-12-25T19:03:31.944Z,9.63
2017-12-25T19:06:00.240Z,10.10
2017-12-25T19:08:28.608Z,9.00
2017-12-25T19:10:57.964Z,9.63
2017-12-25T19:13:26.294Z,9.60
2017-12-25T19:15:54.707Z,9.23
2017-12-25T19:18:23.028Z,8.87
2017-12-25T19:20:51.346Z,8.67
2017-12-25T19:23:19.636Z,8.40
2017-12-25T19:25:47.968Z,9.20
2017-12-25T19:28:16.320Z,9.57
2017-12-25T19:30:45.392Z,9.40
2017-12-25T19:33:13.730Z,9.03
2017-12-25T19:35:42.046Z,9.57
2017-12-25T19:38:10.340Z,9.70
2017-12-25T19:40:38.806Z,9.30
2017-12-25T19:43:07.902Z,9.77
2017-12-25T19:45:36.220Z,9.37
2017-12-25T19:48:05.302Z,9.83
2017-12-25T19:50:33.679Z,8.87
2017-12-25T19:53:02.134Z,9.37
2017-12-25T19:55:30.470Z,10.40
2017-12-25T19:57:59.534Z,8.23
2017-12-25T20:00:27.878Z,9.27
2017-12-25T20:02:56.636Z,8.90
2017-12-25T20:05:25.850Z,8.80
2017-12-25T20:07:54.917Z,9.47
2017-12-25T20:10:23.256Z,9.50
2017-12-25T20:12:51.900Z,9.37
2017-12-25T20:15:20.678Z,10.03
2017-12-25T20:17:49.278Z,9.07
2017-12-25T20:20:17.614Z,9.53
2017-12-25T20:22:45.909Z,9.70
2017-12-25T20:25:14.196Z,9.70
2017-12-25T20:27:43.036Z,10.30
2017-12-25T20:30:12.812Z,9.97
2017-12-25T20:32:41.248Z,9.50
2017-12-25T20:35:10.161Z,9.17
2017-12-25T20:37:39.147Z,9.63
2017-12-25T20:40:08.236Z,9.80
2017-12-25T20:42:37.123Z,10.50
2017-12-25T20:45:06.286Z,9.93
2017-12-25T20:47:35.199Z,10.10
2017-12-25T20:50:04.784Z,10.53
2017-12-25T20:52:33.190Z,9.23
2017-12-25T20:55:01.502Z,10.47
2017-12-25T20:57:31.125Z,10.40
2017-12-25T21:00:00.922Z,10.10
2017-12-25T21:02:30.094Z,9.27
2017-12-25T21:04:58.969Z,9.73
2017-12-25T21:07:27.338Z,9.43
2017-12-25T21:09:56.294Z,9.27
2017-12-25T21:12:26.081Z,9.53
2017-12-25T21:14:55.047Z,9.50
2017-12-25T21:17:23.466Z,9.13
2017-12-25T21:19:51.794Z,8.80
2017-12-25T21:22:20.111Z,9.70
2017-12-25T21:24:48.507Z,8.87
2017-12-25T21:27:17.607Z,8.70
2017-12-25T21:29:45.960Z,8.70
2017-12-25T21:32:14.281Z,9.00
2017-12-25T21:34:42.605Z,8.97
2017-12-25T21:37:10.890Z,8.40
2017-12-25T21:39:39.201Z,9.70
2017-12-25T21:42:07.533Z,9.23
2017-12-25T21:44:35.980Z,9.57
2017-12-25T21:47:05.081Z,8.90
2017-12-25T21:49:33.369Z,8.87
2017-12-25T21:52:01.759Z,9.53
2017-12-25T21:54:30.877Z,9.13
2017-12-25T21:57:00.025Z,9.27
2017-12-25T21:59:28.339Z,10.60
2017-12-25T22:01:56.685Z,8.23
2017-12-25T22:04:25.077Z,9.70
2017-12-25T22:06:53.427Z,9.97
2017-12-25T22:09:21.727Z,9.37
2017-12-25T22:11:50.019Z,10.10
2017-12-25T22:14:18.326Z,9.17
2017-12-25T22:16:46.707Z,9.53
2017-12-25T22:19:15.020Z,9.53
2017-12-25T22:21:44.880Z,10.67
2017-12-25T22:24:13.145Z,10.10
2017-12-25T22:26:41.457Z,9.83
2017-12-25T22:29:09.780Z,9.90
2017-12-25T22:31:38.867Z,10.27
2017-12-25T22:34:07.995Z,10.90
2017-12-25T22:36:36.299Z,10.23
2017-12-25T22:39:04.622Z,10.27
2017-12-25T22:41:32.898Z,8.57
2017-12-25T22:44:01.223Z,11.00
2017-12-25T22:46:29.525Z,10.63
2017-12-25T22:48:57.839Z,10.20
2017-12-25T22:51:26.140Z,10.70
2017-12-25T22:53:55.208Z,10.50
2017-12-25T22:56:23.523Z,10.37
2017-12-25T22:58:52.682Z,10.43
2017-12-25T23:01:20.997Z,9.73
2017-12-25T23:03:50.097Z,10.40
2017-12-25T23:06:19.171Z,10.20
2017-12-25T23:08:47.471Z,9.83
2017-12-25T23:11:15.792Z,9.73
2017-12-25T23:13:44.869Z,9.57
2017-12-25T23:16:13.951Z,9.67
2017-12-25T23:18:42.300Z,9.47
2017-12-25T23:21:10.622Z,8.97
2017-12-25T23:23:39.679Z,9.47
2017-12-25T23:26:08.013Z,9.10
2017-12-25T23:28:36.333Z,9.13
2017-12-25T23:31:04.641Z,9.30
2017-12-25T23:33:32.949Z,8.43
2017-12-25T23:36:02.052Z,8.37
2017-12-25T23:38:31.127Z,8.73
2017-12-25T23:40:59.446Z,8.93
2017-12-25T23:43:27.754Z,8.17
2017-12-25T23:45:56.041Z,8.77
2017-12-25T23:48:24.335Z,8.93
2017-12-25T23:50:52.696Z,8.20
2017-12-25T23:53:20.991Z,8.20
2017-12-25T23:55:49.297Z,8.83
2017-12-25T23:58:18.136Z,8.43
